Time;durP1;ratioP1;P1;durP2;ratioP2;P2;SDS_P1;SDS_P2;PMS_P1;PMS_P2;Temp;Humidity;BMP_temperature;BMP_pressure;BME280_temperature;BME280_humidity;BME280_pressure;Samples;Min_cycle;Max_cycle;Signal;HPM_P1;HPM_P2
2022/07/30 00:01:30;;;;;;;;;;;;;;;18.10;76.35;97954.50;5029328;28;19917;-69
2022/07/30 00:03:58;;;;;;;;;;;;;;;18.10;76.23;97949.81;5026978;28;19928;-69
2022/07/30 00:06:29;;;;;;;;;;;;;;;18.14;76.34;97950.69;5023070;28;20327;-68
2022/07/30 00:08:59;;;;;;;;;;;;;;;17.69;77.66;97946.53;5049857;28;19917;-69
2022/07/30 00:11:29;;;;;;;;;;;;;;;17.85;77.39;97948.47;5050201;28;19936;-69
2022/07/30 00:13:57;;;;;;;;;;;;;;;17.84;77.21;97946.84;5047591;28;19927;-69
2022/07/30 00:16:27;;;;;;;;;;;;;;;17.76;77.71;97946.72;5027976;28;19920;-68
2022/07/30 00:18:55;;;;;;;;;;;;;;;17.90;77.53;97946.25;5049882;28;20003;-69
2022/07/30 00:21:26;;;;;;;;;;;;;;;18.03;76.86;97947.69;5048887;28;19921;-70
2022/07/30 00:24:03;;;;;;;;;;;;;;;18.14;76.67;97942.44;5030695;28;20440;-69
2022/07/30 00:26:35;;;;;;;;;;;;;;;18.19;76.51;97944.09;5047158;28;19917;-69
2022/07/30 00:29:03;;;;;;;;;;;;;;;18.23;76.25;97937.53;4936511;29;19930;-69
2022/07/30 00:31:31;;;;;;;;;;;;;;;18.28;76.05;97944.69;4933770;29;19958;-69
2022/07/30 00:34:02;;;;;;;;;;;;;;;18.25;76.08;97935.22;4939737;28;20405;-69
2022/07/30 00:36:35;;;;;;;;;;;;;;;18.22;76.04;97940.66;4932101;29;19929;-69
2022/07/30 00:39:03;;;;;;;;;;;;;;;18.11;76.53;97942.34;4942961;28;19960;-67
2022/07/30 00:41:31;;;;;;;;;;;;;;;17.86;77.74;97941.81;4946551;28;19918;-66
2022/07/30 00:44:06;;;;;;;;;;;;;;;17.87;77.48;97941.44;4932072;29;20014;-68
2022/07/30 00:46:34;;;;;;;;;;;;;;;18.05;76.82;97939.88;4950669;28;19923;-69
2022/07/30 00:49:04;;;;;;;;;;;;;;;18.10;76.61;97943.50;5024844;28;19921;-68
2022/07/30 00:51:34;;;;;;;;;;;;;;;18.19;76.37;97949.59;5031741;28;19916;-68
2022/07/30 00:54:02;;;;;;;;;;;;;;;18.22;76.21;97946.94;5027473;28;20217;-68
2022/07/30 00:56:37;;;;;;;;;;;;;;;18.15;76.18;97955.03;5053812;28;19916;-68
2022/07/30 00:59:07;;;;;;;;;;;;;;;17.93;76.97;97950.22;5030623;28;19916;-68
2022/07/30 01:01:37;;;;;;;;;;;;;;;17.80;77.47;97952.28;5031269;28;19916;-68
2022/07/30 01:04:10;;;;;;;;;;;;;;;17.93;77.03;97963.97;5028955;28;20029;-69
2022/07/30 01:06:39;;;;;;;;;;;;;;;18.15;76.56;97957.78;5031424;28;19916;-59
2022/07/30 01:09:06;;;;;;;;;;;;;;;18.19;76.28;97957.84;5049278;28;20713;-68
2022/07/30 01:11:37;;;;;;;;;;;;;;;18.17;76.01;97955.47;5048182;28;20613;-68
2022/07/30 01:14:05;;;;;;;;;;;;;;;18.27;76.05;97960.41;5026141;28;19980;-68
2022/07/30 01:16:34;;;;;;;;;;;;;;;18.21;75.92;97950.81;5051806;28;19921;-69
2022/07/30 01:22:00;;;;;;;;;;;;;;;18.11;76.00;97956.91;5024973;28;19928;-68
2022/07/30 01:24:33;;;;;;;;;;;;;;;18.02;76.41;97953.56;5053345;28;19921;-67
2022/07/30 01:27:03;;;;;;;;;;;;;;;17.80;77.38;97957.78;5034552;28;19917;-69
2022/07/30 01:29:31;;;;;;;;;;;;;;;17.93;76.95;97953.75;5041211;28;19956;-68
2022/07/30 01:31:59;;;;;;;;;;;;;;;17.84;77.02;97955.09;5020880;28;20344;-68
2022/07/30 01:34:28;;;;;;;;;;;;;;;17.99;76.85;97955.06;5024500;28;19952;-69
2022/07/30 01:36:56;;;;;;;;;;;;;;;18.16;76.13;97959.34;5035219;28;19916;-68
2022/07/30 01:39:25;;;;;;;;;;;;;;;18.19;75.93;97952.34;5052973;28;19952;-68
2022/07/30 01:41:54;;;;;;;;;;;;;;;18.14;75.88;97956.19;5028737;28;19924;-68
2022/07/30 01:44:23;;;;;;;;;;;;;;;18.43;75.20;97967.78;5023611;28;19916;-68
2022/07/30 01:46:53;;;;;;;;;;;;;;;18.37;75.33;97961.75;5034372;28;20353;-69
2022/07/30 01:49:22;;;;;;;;;;;;;;;17.86;76.93;97964.59;5033144;28;19916;-68
2022/07/30 01:51:51;;;;;;;;;;;;;;;17.86;77.12;97972.06;5036287;28;19920;-68
2022/07/30 01:54:20;;;;;;;;;;;;;;;17.72;77.77;97965.06;5036800;28;19923;-67
2022/07/30 01:56:51;;;;;;;;;;;;;;;17.92;77.03;97965.91;5039012;28;19980;-67
2022/07/30 01:59:19;;;;;;;;;;;;;;;18.17;76.09;97965.69;5012338;28;20019;-68
2022/07/30 02:01:49;;;;;;;;;;;;;;;18.23;76.06;97975.25;5025307;28;19917;-65
2022/07/30 02:04:17;;;;;;;;;;;;;;;18.18;76.02;97970.81;5029687;28;19917;-68
2022/07/30 02:06:46;;;;;;;;;;;;;;;18.23;75.97;97970.53;5035151;28;20023;-68
2022/07/30 02:09:18;;;;;;;;;;;;;;;18.22;75.86;97966.19;5031794;28;19923;-68
2022/07/30 02:14:34;;;;;;;;;;;;;;;18.11;76.22;97964.34;5034013;28;19924;-68
2022/07/30 02:17:05;;;;;;;;;;;;;;;18.15;75.84;97966.03;5028491;28;19920;-64
2022/07/30 02:19:39;;;;;;;;;;;;;;;18.19;75.87;97958.66;5050713;28;20008;-66
2022/07/30 02:22:10;;;;;;;;;;;;;;;18.11;76.23;97956.91;5033904;28;19936;-70
2022/07/30 02:24:38;;;;;;;;;;;;;;;18.21;75.77;97964.56;5051182;28;19998;-57
2022/07/30 02:27:08;;;;;;;;;;;;;;;18.11;76.39;97964.34;5054247;28;20032;-67
2022/07/30 02:29:37;;;;;;;;;;;;;;;18.43;75.14;97971.34;5026503;28;19916;-67
2022/07/30 02:32:08;;;;;;;;;;;;;;;18.22;75.65;97962.66;5029830;28;20448;-68
2022/07/30 02:34:39;;;;;;;;;;;;;;;18.17;75.97;97971.19;5005175;28;20016;-58
2022/07/30 02:37:07;;;;;;;;;;;;;;;18.26;75.62;97969.00;5014390;28;19963;-69
2022/07/30 02:39:37;;;;;;;;;;;;;;;18.56;74.73;97958.22;5017868;28;20373;-66
2022/07/30 02:42:09;;;;;;;;;;;;;;;18.52;74.56;97962.88;5024498;28;20381;-68
2022/07/30 02:44:38;;;;;;;11.73;7.47;;;;;;;18.25;75.39;97959.16;5017919;28;20477;-68
2022/07/30 02:47:09;;;;;;;15.23;9.10;;;;;;;18.36;75.59;97967.63;5017846;28;20393;-68
2022/07/30 02:50:05;;;;;;;14.33;9.10;;;;;;;18.07;76.62;97961.53;5020634;28;21268;-69
2022/07/30 02:52:37;;;;;;;;;;;;;;;17.94;77.60;97960.06;5031935;28;20419;-61
2022/07/30 02:55:06;;;;;;;;;;;;;;;17.85;77.87;97953.97;5001913;28;20004;-69
2022/07/30 02:57:34;;;;;;;;;;;;;;;18.16;76.87;97961.31;5000181;28;20012;-69
2022/07/30 03:00:03;;;;;;;;;;;;;;;18.08;76.60;97954.09;4992870;28;20333;-68
2022/07/30 03:02:35;;;;;;;;;;;;;;;18.09;76.37;97961.97;5006216;28;19927;-69
2022/07/30 03:05:06;;;;;;;;;;;;;;;17.87;77.33;97962.66;5025309;28;19917;-66
2022/07/30 03:08:02;;;;;;;;;;;;;;;17.86;77.44;97955.56;5005987;28;19924;-68
2022/07/30 03:10:30;;;;;;;;;;;;;;;17.72;77.97;97955.97;5005640;28;19924;-68
2022/07/30 03:12:58;;;;;;;;;;;;;;;18.09;76.50;97958.41;5003592;28;19921;-69
2022/07/30 03:15:27;;;;;;;;;;;;;;;18.37;75.50;97952.72;5015747;28;20741;-68
2022/07/30 03:17:56;;;;;;;;;;;;;;;18.42;75.26;97957.94;5008464;28;19964;-68
2022/07/30 03:20:27;;;;;;;;;;;;;;;18.34;75.57;97957.00;5012239;28;20428;-69
2022/07/30 03:25:57;;;;;;;;;;;;;;;17.86;77.30;97961.84;5004200;28;19921;-68
2022/07/30 03:28:50;;;;;;;;;;;;;;;17.48;78.89;97962.50;5001567;28;19921;-68
2022/07/30 03:31:18;;;;;;;;;;;;;;;17.40;79.35;97960.72;5015136;28;19968;-68
2022/07/30 03:33:50;;;;;;;;;;;;;;;17.42;79.51;97961.97;5024899;28;20365;-67
2022/07/30 03:36:21;;;;;;;;;;;;;;;17.34;79.54;97962.94;5050712;28;19921;-69
2022/07/30 03:38:49;;;;;;;;;;;;;;;17.41;79.50;97970.53;5023129;28;19920;-68
2022/07/30 03:41:17;;;;;;;;;;;;;;;17.60;78.74;97965.13;5037469;28;20316;-69
2022/07/30 03:43:46;;;;;;;;;;;;;;;17.42;79.20;97967.47;5035708;28;19933;-69
2022/07/30 03:46:14;;;;;;;;;;;;;;;17.51;79.06;97972.75;5053090;28;19959;-68
2022/07/30 03:48:45;;;;;;;;;;;;;;;17.60;78.79;97967.88;5038773;28;20384;-69
2022/07/30 03:51:14;;;;;;;;;;;;;;;18.15;76.25;97981.72;5036300;28;19928;-62
2022/07/30 03:53:42;;;;;;;;;;;;;;;18.29;75.04;97971.84;5055563;28;19931;-69
2022/07/30 03:56:29;;;;;;;;;;;;;;;18.25;74.93;97979.22;5053340;28;19928;-69
2022/07/30 03:59:23;;;;;;;;;;;;;;;18.06;75.47;97984.69;4945809;28;19938;-69
2022/07/30 04:01:51;;;;;;;;;;;;;;;18.06;75.20;97979.97;4948757;28;19982;-62
2022/07/30 04:04:44;;;;;;;;;;;;;;;17.97;75.36;97979.38;4922754;29;19982;-68
2022/07/30 04:07:13;;;;;;;;;;;;;;;17.90;75.49;97981.97;4929386;28;19923;-68
2022/07/30 04:09:41;;;;;;;;;;;;;;;17.78;75.86;97980.09;4945769;28;20055;-68
2022/07/30 04:12:26;;;;;;;;;;;;;;;17.80;75.85;97991.56;4922540;28;20272;-68
2022/07/30 04:14:56;;;;;;;;;;;;;;;17.75;76.00;98000.06;4932242;29;20330;-70
2022/07/30 04:17:24;;;;;;;;;;;;;;;17.71;75.76;98001.91;5002564;28;19921;-68
2022/07/30 04:19:53;;;;;;;;;;;;;;;17.55;76.34;97995.63;5027805;28;20428;-68
2022/07/30 04:22:27;;;;;;;;;;;;;;;17.64;76.18;97998.19;5040454;28;20008;-68
2022/07/30 04:24:58;;;;;;;;;;;;;;;17.85;75.35;98008.94;5037082;28;20214;-69
2022/07/30 04:27:26;;;;;;;;;;;;;;;17.83;74.99;98011.22;5030204;28;19944;-68
2022/07/30 04:30:19;;;;;;;;;;;;;;;17.56;75.61;98010.94;5051794;28;19931;-68
2022/07/30 04:32:48;;;;;;;;;;;;;;;17.62;75.54;98015.00;5034807;28;19956;-68
2022/07/30 04:35:36;;;;;;;;;;;;;;;17.69;75.43;98006.97;4999328;28;20329;-68
2022/07/30 04:38:26;;;;;;;;;;;;;;;17.60;75.76;98009.09;5049118;28;19944;-68
2022/07/30 04:40:56;;;;;;;;;;;;;;;17.62;75.95;98016.97;5019107;28;20020;-67
2022/07/30 04:43:26;;;;;;;;;;;;;;;17.65;75.60;98019.03;5028868;28;19925;-67
2022/07/30 04:45:54;;;;;;;;;;;;;;;17.63;76.09;98019.38;4963800;28;19995;-68
2022/07/30 04:48:25;;;;;;;;;;;;;;;17.86;74.97;98019.56;4951815;28;19930;-68
2022/07/30 04:51:05;;;;;;;;;;;;;;;17.82;74.86;98021.44;4962791;28;20012;-68
2022/07/30 04:53:37;;;;;;;;;;;;;;;17.72;75.22;98016.44;4949232;28;19991;-69
2022/07/30 04:56:04;;;;;;;;;;;;;;;17.75;75.40;98022.06;4950063;28;19976;-67
2022/07/30 04:58:35;;;;;;;;;;;;;;;17.88;74.98;98024.69;4952108;28;19926;-68
2022/07/30 05:01:05;;;;;;;;;;;;;;;17.97;74.21;98031.59;4962718;28;20049;-68
2022/07/30 05:03:34;;;;;;;;;;;;;;;17.92;74.21;98020.88;4980453;28;19967;-68
2022/07/30 05:06:03;;;;;;;13.45;8.60;;;;;;;17.88;74.38;98021.94;5011736;28;20797;-67
2022/07/30 05:08:37;;;;;;;;;;;;;;;17.98;74.11;98029.66;5022666;28;20423;-68
2022/07/30 05:11:11;;;;;;;;;;;;;;;17.89;74.50;98023.53;5024049;28;19921;-67
2022/07/30 05:13:40;;;;;;;;;;;;;;;17.67;75.29;98027.69;5024088;28;19968;-65
2022/07/30 05:16:12;;;;;;;;;;;;;;;17.68;75.02;98035.56;5035885;28;19916;-68
2022/07/30 05:18:40;;;;;;;;;;;;;;;18.03;74.08;98037.63;5033010;28;19923;-67
2022/07/30 05:21:09;;;;;;;;;;;;;;;17.94;73.86;98048.00;5051583;28;19921;-66
2022/07/30 05:23:45;;;;;;;;;;;;;;;17.41;75.79;98044.69;5029284;28;19932;-66
2022/07/30 05:26:37;;;;;;;;;;;;;;;17.74;74.78;98045.19;4945398;28;19918;-67
2022/07/30 05:29:07;;;;;;;;;;;;;;;17.71;74.56;98048.63;4948095;28;20260;-68
2022/07/30 05:31:58;;;;;;;;;;;;;;;17.53;75.44;98047.38;4953480;28;19922;-66
2022/07/30 05:34:35;;;;;;;;;;;;;;;16.89;78.22;98062.13;4961638;28;19918;-68
2022/07/30 05:37:06;;;;;;;;;;;;;;;17.31;77.01;98061.69;4955377;28;20425;-69
2022/07/30 05:39:39;;;;;;;;;;;;;;;17.50;75.87;98062.59;4957795;28;19922;-68
2022/07/30 05:42:38;;;;;;;;;;;;;;;17.37;76.29;98060.31;4959716;28;19936;-63
2022/07/30 05:45:09;;;;;;;;;;;;;;;17.36;76.59;98070.47;5014952;28;19917;-63
2022/07/30 05:47:39;;;;;;;;;;;;;;;17.33;77.01;98067.63;5027436;28;20265;-67
2022/07/30 05:50:08;;;;;;;;;;;;;;;17.19;77.78;98065.28;5025335;28;20007;-68
2022/07/30 05:52:38;;;;;;;;;;;;;;;16.91;79.52;98065.31;5033231;28;19924;-57
2022/07/30 05:55:27;;;;;;;;;;;;;;;16.91;79.49;98070.81;5046842;28;20416;-64
2022/07/30 05:58:08;;;;;;;;;;;;;;;17.13;78.39;98073.00;5037420;28;19959;-67
2022/07/30 06:00:37;;;;;;;;;;;;;;;17.34;77.71;98075.53;5051095;28;20019;-66
2022/07/30 06:03:30;;;;;;;;;;;;;;;17.39;77.73;98075.25;5037479;28;19920;-68
2022/07/30 06:06:16;;;;;;;;;;;;;;;17.44;77.27;98074.22;5043952;28;20352;-67
2022/07/30 06:08:49;;;;;;;;;;;;;;;17.54;76.51;98066.25;5029590;28;19963;-68
2022/07/30 06:11:19;;;;;;;;;;;;;;;17.54;76.38;98074.50;5046294;28;19952;-69
2022/07/30 06:13:47;;;;;;;;;;;;;;;17.36;77.08;98066.91;5023260;28;20407;-73
2022/07/30 06:16:15;;;;;;;;;;;;;;;17.13;78.01;98067.50;5029258;28;19917;-72
2022/07/30 06:18:43;;;;;;;;;;;;;;;17.34;77.45;98077.47;5027338;28;19921;-70
2022/07/30 06:24:32;;;;;;;;;;;;;;;17.73;75.45;98068.31;5037262;28;19920;-73
2022/07/30 06:27:17;;;;;;;;;;;;;;;17.70;75.73;98074.50;5028839;28;20300;-70
2022/07/30 06:29:45;;;;;;;;;;;;;;;18.06;73.79;98073.47;5054419;28;19959;-65
2022/07/30 06:32:19;;;;;;;;;;;;;;;17.94;74.21;98061.75;5055172;28;19920;-73
2022/07/30 06:35:12;;;;;;;;;;;;;;;18.31;72.77;98073.22;5010639;28;19918;-59
2022/07/30 06:37:42;;;;;;;;;;;;;;;18.48;71.82;98069.28;5009762;28;19966;-57
2022/07/30 06:40:28;;;;;;;;;;;;;;;18.62;71.34;98071.56;5019510;28;20888;-71
2022/07/30 06:43:08;;;;;;;;;;;;;;;18.50;71.36;98064.22;5002385;28;20060;-71
2022/07/30 06:45:50;;;;;;;;;;;;;;;18.56;70.22;98069.09;5017800;28;19929;-70
2022/07/30 06:48:29;;;;;;;;;;;;;;;18.68;70.54;98065.44;5010150;28;20000;-65
2022/07/30 06:50:59;;;;;;;;;;;;;;;18.77;69.70;98060.50;5016673;28;20021;-72
2022/07/30 06:53:30;;;;;;;;;;;;;;;18.67;69.44;98057.50;5029188;28;19917;-68
2022/07/30 06:56:21;;;;;;;;;;;;;;;18.65;69.14;98062.59;4993097;28;20376;-72
2022/07/30 06:59:01;;;;;;;;;;;;;;;18.75;69.10;98062.03;5011660;28;19952;-72
2022/07/30 07:02:04;;;;;;;;;;;;;;;18.84;68.02;98066.16;5036193;28;19921;-71
2022/07/30 07:04:56;;;;;;;;;;;;;;;18.77;68.30;98074.28;5039896;28;20342;-73
2022/07/30 07:07:24;;;;;;;;;;;;;;;18.66;68.34;98078.72;5011849;28;19967;-71
2022/07/30 07:10:17;;;;;;;;;;;;;;;18.74;67.76;98072.25;5017352;28;19918;-71
2022/07/30 07:12:45;;;;;;;;;;;;;;;18.46;68.26;98068.84;5033287;28;19917;-71
2022/07/30 07:15:17;;;;;;;;;;;;;;;18.76;67.60;98069.94;5035818;28;19921;-71
2022/07/30 07:17:45;;;;;;;;;;;;;;;18.86;67.13;98079.59;5028887;28;19923;-72
2022/07/30 07:20:19;;;;;;;;;;;;;;;18.86;67.34;98082.34;5027454;28;19921;-72
2022/07/30 07:22:53;;;;;;;;;;;;;;;18.91;67.18;98076.53;4997122;28;20285;-72
2022/07/30 07:25:26;;;;;;;;;;;;;;;18.88;67.28;98081.97;5017106;28;19976;-71
2022/07/30 07:27:54;;;;;;;;;;;;;;;18.82;67.01;98085.00;5018903;28;19979;-69
2022/07/30 07:31:05;;;;;;;;;;;;;;;18.89;67.17;98086.31;5032070;28;20007;-72
2022/07/30 07:33:35;;;;;;;;;;;;;;;18.87;66.78;98094.13;5011610;28;19928;-72
2022/07/30 07:36:03;;;;;;;;;;;;;;;18.87;66.75;98092.19;5018721;28;19929;-72
2022/07/30 07:38:32;;;;;;;;;;;;;;;18.88;66.82;98088.25;5025440;28;19917;-71
2022/07/30 07:41:00;;;;;;;;;;;;;;;19.09;66.53;98087.91;5015705;28;19935;-73
2022/07/30 07:43:29;;;;;;;;;;;;;;;19.01;66.28;98097.16;5013000;28;19924;-69
2022/07/30 07:45:59;;;;;;;;;;;;;;;19.10;65.21;98101.31;5005855;28;19925;-72
2022/07/30 07:48:32;;;;;;;;;;;;;;;19.07;65.72;98090.25;5014294;28;19952;-70
2022/07/30 07:51:16;;;;;;;;;;;;;;;19.25;65.60;98094.13;5014811;28;20257;-72
2022/07/30 07:53:46;;;;;;;;;;;;;;;19.14;65.56;98106.09;5035894;28;19921;-72
2022/07/30 07:56:33;;;;;;;;;;;;;;;18.89;66.36;98106.38;5008033;28;20170;-60
2022/07/30 07:59:00;;;;;;;;;;;;;;;18.89;66.83;98106.38;5019285;28;19921;-72
2022/07/30 08:01:31;;;;;;;;;;;;;;;19.06;66.64;98107.91;5034339;28;19979;-68
2022/07/30 08:04:27;;;;;;;;;;;;;;;19.19;65.45;98112.09;5023144;28;19921;-72
2022/07/30 08:07:18;;;;;;;;;;;;;;;19.34;63.96;98107.69;5034459;28;19917;-72
2022/07/30 08:10:04;;;;;;;;;;;;;;;19.31;64.25;98105.66;5016379;28;20120;-71
2022/07/30 08:12:55;;;;;;;;;;;;;;;19.28;64.18;98107.19;5025234;28;20009;-72
2022/07/30 08:15:42;;;;;;;;;;;;;;;19.11;64.65;98110.34;5035008;28;19924;-68
2022/07/30 08:18:28;;;;;;;;;;;;;;;19.24;64.62;98111.81;5030375;28;20002;-67
2022/07/30 08:21:11;;;;;;;;;;;;;;;19.34;63.88;98110.44;5010121;28;19917;-68
2022/07/30 08:23:39;;;;;;;;;;;;;;;19.40;63.99;98108.19;5030361;28;19963;-66
2022/07/30 08:26:09;;;;;;;;;;;;;;;19.50;63.95;98107.59;5032674;28;20020;-68
2022/07/30 08:28:38;;;;;;;;;;;;;;;19.53;64.05;98102.13;5013610;28;19960;-61
2022/07/30 08:31:07;;;;;;;;;;;;;;;19.71;63.36;98113.53;5017287;28;19917;-68
2022/07/30 08:33:35;;;;;;;;;;;;;;;19.72;63.03;98126.13;5024733;28;19927;-68
2022/07/30 08:36:04;;;;;;;;;;;;;;;19.64;63.00;98118.88;5037007;28;20014;-68
2022/07/30 08:38:38;;;;;;;;;;;;;;;19.57;63.84;98121.50;5035151;28;20372;-68
2022/07/30 08:41:07;;;;;;;;;;;;;;;19.72;63.64;98119.84;5016743;28;19917;-66
2022/07/30 08:43:36;;;;;;;;;;;;;;;19.92;62.76;98126.88;5032057;28;19920;-67
2022/07/30 08:46:07;;;;;;;;;;;;;;;19.98;61.92;98127.38;5054626;28;19923;-67
2022/07/30 08:48:45;;;;;;;;;;;;;;;19.88;61.93;98126.81;5036771;28;19921;-68
2022/07/30 08:51:15;;;;;;;;;;;;;;;20.00;62.06;98125.03;5032479;28;19936;-63
2022/07/30 08:53:44;;;;;;;;;;;;;;;19.82;63.00;98120.03;5051169;28;19916;-60
2022/07/30 08:56:12;;;;;;;;;;;;;;;20.02;62.54;98125.44;5031708;28;19963;-68
2022/07/30 08:58:40;;;;;;;;;;;;;;;20.22;61.87;98140.78;5029935;28;19923;-68
2022/07/30 09:01:10;;;;;;;;;;;;;;;20.33;62.13;98136.22;5054413;28;19916;-68
2022/07/30 09:03:38;;;;;;;;;;;;;;;20.21;62.19;98141.94;5026583;28;20392;-64
2022/07/30 09:06:11;;;;;;;;;;;;;;;20.21;62.40;98147.47;5045259;28;19917;-67
2022/07/30 09:08:41;;;;;;;;;;;;;;;20.36;61.35;98138.25;5049735;28;19920;-65
2022/07/30 09:11:12;;;;;;;;;;;;;;;20.46;61.22;98147.06;5029094;28;19916;-68
2022/07/30 09:13:41;;;;;;;;;;;;;;;20.41;61.29;98153.69;5029496;28;19920;-67
2022/07/30 09:16:18;;;;;;;;;;;;;;;20.26;60.94;98143.59;5047286;28;20181;-67
2022/07/30 09:22:05;;;;;;;;;;;;;;;20.20;61.47;98162.44;5050560;28;19998;-67
2022/07/30 09:24:55;;;;;;;;;;;;;;;20.27;61.60;98156.22;5049954;28;19916;-64
2022/07/30 09:27:52;;;;;;;;;;;;;;;20.44;60.55;98152.16;5049886;28;20007;-68
2022/07/30 09:30:44;;;;;;;;;;;;;;;20.60;59.48;98147.28;5049220;28;20361;-67
2022/07/30 09:33:32;;;;;;;;;;;;;;;20.74;58.91;98147.50;5043861;28;20032;-67
2022/07/30 09:36:19;;;;;;;;;;;;;;;20.93;59.37;98139.13;5055238;28;20094;-66
2022/07/30 09:39:33;;;;;;;;;;;;;;;20.72;58.44;98149.88;4941931;28;19918;-68
2022/07/30 09:42:24;;;;;;;;;;;;;;;20.86;57.96;98147.28;5033138;28;19955;-65
2022/07/30 09:45:05;;;;;;;;;;;;;;;21.01;57.69;98151.03;5028918;28;19917;-66
2022/07/30 09:47:41;;;;;;;;;;;;;;;21.14;57.25;98148.81;5037910;28;19929;-67
2022/07/30 09:50:10;;;;;;;;;;;;;;;21.35;56.50;98140.81;5023536;28;19948;-67
2022/07/30 09:52:41;;;;;;;;;;;;;;;21.36;56.95;98144.38;5033968;28;19929;-66
2022/07/30 09:55:11;;;;;;;;;;;;;;;21.48;57.08;98138.63;5051407;28;19923;-66
2022/07/30 09:57:53;;;;;;;;;;;;;;;21.37;56.98;98141.25;5038095;28;19917;-67
2022/07/30 10:00:24;;;;;;;;;;;;;;;21.41;55.93;98150.41;5040513;28;20016;-67
2022/07/30 10:03:17;;;;;;;;;;;;;;;21.32;55.08;98138.03;5034411;28;19928;-68
2022/07/30 10:06:32;;;;;;;;;;;;;;;21.30;55.50;98140.38;5055302;28;19916;-68
2022/07/30 10:09:02;;;;;;;;;;;;;;;21.66;54.98;98134.06;5035609;28;20026;-68
2022/07/30 10:11:41;;;;;;;;;;;;;;;21.91;54.33;98142.63;5034769;28;19931;-68
2022/07/30 10:14:09;;;;;;;;;;;;;;;21.66;53.17;98145.13;5052207;28;19917;-66
2022/07/30 10:16:37;;;;;;;;;;;;;;;21.56;52.41;98136.72;5047992;28;19929;-58
2022/07/30 10:19:10;;;;;;;3.92;2.80;;;;;;;21.16;53.97;98139.00;5030536;28;20405;-66
2022/07/30 10:22:11;;;;;;;4.63;2.90;;;;;;;21.42;54.26;98137.38;5055953;28;20415;-68
2022/07/30 10:25:04;;;;;;;5.18;2.80;;;;;;;21.64;54.31;98127.34;4992988;28;20498;-67
2022/07/30 10:28:05;;;;;;;4.47;2.80;;;;;;;21.83;53.78;98132.66;5023495;28;20405;-61
2022/07/30 10:30:36;;;;;;;5.20;2.65;;;;;;;21.86;52.98;98131.91;5036685;28;20409;-66
2022/07/30 10:33:08;;;;;;;5.00;2.90;;;;;;;21.75;53.44;98132.97;5033479;28;20500;-73
2022/07/30 10:35:57;;;;;;;5.20;2.97;;;;;;;21.52;52.68;98127.59;5036165;28;20802;-66
2022/07/30 10:38:31;;;;;;;6.00;2.77;;;;;;;21.62;53.01;98119.41;5048714;28;20461;-66
2022/07/30 10:41:03;;;;;;;4.70;2.58;;;;;;;21.87;52.54;98114.13;5060923;28;20418;-73
2022/07/30 10:43:59;;;;;;;4.10;2.60;;;;;;;21.88;51.82;98118.47;5050583;28;20512;-69
2022/07/30 10:46:30;;;;;;;;;;;;;;;21.89;51.51;98122.84;5030637;28;20484;-70
2022/07/30 10:49:07;;;;;;;;;;;;;;;22.05;50.37;98130.09;5053118;28;19924;-67
2022/07/30 10:51:48;;;;;;;;;;;;;;;22.15;50.11;98121.13;5053855;28;20195;-70
2022/07/30 10:54:35;;;;;;;;;;;;;;;22.18;50.17;98120.34;5052527;28;19928;-70
2022/07/30 10:57:07;;;;;;;;;;;;;;;22.05;50.71;98116.25;5032943;28;20357;-69
2022/07/30 11:00:10;;;;;;;4.82;2.65;;;;;;;21.93;50.41;98117.34;5047247;28;20445;-69
2022/07/30 11:03:16;;;;;;;4.60;2.60;;;;;;;21.90;50.05;98120.88;5049541;28;20414;-69
2022/07/30 11:05:47;;;;;;;4.30;2.85;;;;;;;22.01;49.74;98116.25;5057123;28;20406;-68
2022/07/30 11:08:49;;;;;;;5.47;2.77;;;;;;;21.92;49.51;98126.81;5053513;28;20419;-69
2022/07/30 11:11:46;;;;;;;3.87;2.70;;;;;;;21.81;50.81;98126.72;5038154;28;20498;-69
2022/07/30 11:14:58;;;;;;;3.85;2.40;;;;;;;21.89;49.61;98116.50;5023611;28;20924;-62
2022/07/30 11:18:03;;;;;;;4.82;2.33;;;;;;;21.98;50.49;98120.53;5031807;28;20406;-69
2022/07/30 11:20:41;;;;;;;4.28;2.30;;;;;;;21.93;50.24;98123.66;5032460;28;20436;-65
2022/07/30 11:23:38;;;;;;;5.53;2.40;;;;;;;21.77;50.51;98136.94;5056255;28;20858;-70
2022/07/30 11:26:49;;;;;;;3.95;2.65;;;;;;;21.48;53.08;98135.06;5032109;28;20422;-70
2022/07/30 11:29:40;;;;;;;5.15;2.92;;;;;;;21.59;54.18;98131.25;5053541;28;20415;-69
2022/07/30 11:32:44;;;;;;;4.75;3.30;;;;;;;21.67;55.52;98127.34;5044276;28;20439;-70
2022/07/30 11:35:18;;;;;;;4.73;3.00;;;;;;;21.49;55.96;98131.13;5016952;28;20411;-69
2022/07/30 11:37:56;;;;;;;4.65;2.92;;;;;;;21.55;56.39;98132.38;5021002;28;20971;-69
2022/07/30 11:40:34;;;;;;;5.13;3.17;;;;;;;21.68;54.90;98117.13;5026970;28;20403;-69
2022/07/30 11:43:23;;;;;;;4.20;2.50;;;;;;;21.79;53.08;98115.25;5020209;28;20426;-70
2022/07/30 11:46:08;;;;;;;3.88;2.50;;;;;;;21.76;52.11;98118.75;5021349;28;20466;-69
2022/07/30 11:48:55;;;;;;;5.75;3.25;;;;;;;21.67;53.16;98105.25;5042599;28;20411;-69
2022/07/30 11:51:24;;;;;;;4.60;2.42;;;;;;;22.06;52.30;98109.56;5028539;28;20410;-66
2022/07/30 11:54:02;;;;;;;4.60;2.67;;;;;;;22.18;51.41;98106.53;5030601;28;20494;-68
2022/07/30 11:56:30;;;;;;;3.92;2.45;;;;;;;22.41;50.20;98104.31;5047176;28;20417;-69
2022/07/30 11:59:04;;;;;;;4.88;2.90;;;;;;;22.51;50.64;98110.31;5024562;28;20483;-68
2022/07/30 12:01:33;;;;;;;3.95;2.47;;;;;;;22.36;49.34;98118.50;5044625;28;20425;-68
2022/07/30 12:04:03;;;;;;;3.80;2.40;;;;;;;22.43;48.91;98113.03;5041247;28;20866;-69
2022/07/30 12:06:32;;;;;;;4.43;2.42;;;;;;;22.40;49.18;98102.72;5029195;28;20901;-69
2022/07/30 12:09:00;;;;;;;5.60;2.80;;;;;;;22.66;49.78;98112.00;5027787;28;20445;-69
2022/07/30 12:11:32;;;;;;;3.80;2.33;;;;;;;22.64;48.37;98106.06;5041040;28;20407;-67
2022/07/30 12:14:01;;;;;;;4.32;2.40;;;;;;;22.68;47.83;98102.09;5046291;28;20483;-65
2022/07/30 12:16:33;;;;;;;5.35;2.60;;;;;;;22.78;48.55;98105.34;5047543;28;20904;-68
2022/07/30 12:19:02;;;;;;;3.72;2.45;;;;;;;22.76;47.87;98108.50;5046205;28;20441;-69
2022/07/30 12:21:33;;;;;;;4.75;2.53;;;;;;;22.81;47.04;98105.34;5047780;28;20409;-68
2022/07/30 12:24:06;;;;;;;5.47;2.30;;;;;;;22.51;47.62;98097.25;5042932;28;20429;-70
2022/07/30 12:26:37;;;;;;;4.57;2.53;;;;;;;22.39;48.02;98092.84;5022817;28;20877;-70
2022/07/30 12:29:08;;;;;;;5.25;2.55;;;;;;;22.34;49.21;98104.28;5043054;28;20427;-70
2022/07/30 12:31:39;;;;;;;4.30;2.42;;;;;;;22.47;48.52;98113.84;5039511;28;20568;-66
2022/07/30 12:34:19;;;;;;;4.75;3.00;;;;;;;22.33;47.90;98118.50;5047109;28;20413;-70
2022/07/30 12:36:47;;;;;;;4.85;2.75;;;;;;;21.92;50.59;98137.88;5049132;28;20425;-69
2022/07/30 12:39:21;;;;;;;5.67;2.70;;;;;;;21.60;51.62;98140.31;5045108;28;20495;-69
2022/07/30 12:41:51;;;;;;;5.20;2.53;;;;;;;21.31;53.38;98136.47;5037924;28;20697;-66
2022/07/30 12:44:38;;;;;;;6.60;3.15;;;;;;;21.13;53.99;98119.63;5050577;28;20407;-71
2022/07/30 12:47:20;;;;;;;6.25;3.17;;;;;;;21.12;55.06;98118.03;5049176;28;20437;-70
2022/07/30 12:49:48;;;;;;;4.60;2.80;;;;;;;21.21;54.45;98120.50;5052073;28;20408;-71
2022/07/30 12:52:22;;;;;;;6.20;3.10;;;;;;;21.24;55.58;98116.97;5046117;28;20403;-70
2022/07/30 12:55:00;;;;;;;6.80;3.40;;;;;;;21.39;55.30;98110.47;5022970;28;20430;-62
2022/07/30 12:57:28;;;;;;;5.28;3.42;;;;;;;21.29;54.88;98109.16;5047620;28;20419;-70
2022/07/30 13:00:05;;;;;;;5.80;3.53;;;;;;;21.41;54.96;98100.66;5049775;28;20415;-69
2022/07/30 13:02:38;;;;;;;6.07;3.45;;;;;;;21.28;54.25;98096.50;5054652;28;20541;-71
2022/07/30 13:05:07;;;;;;;6.50;3.20;;;;;;;21.64;54.24;98094.16;5042793;28;20426;-70
2022/07/30 13:07:53;;;;;;;5.38;3.28;;;;;;;21.69;52.75;98085.53;5026537;28;20408;-70
2022/07/30 13:10:24;;;;;;;6.60;3.03;;;;;;;22.08;51.60;98076.75;5029903;28;20401;-71
2022/07/30 13:18:52;;;;;;;4.93;2.63;;;;;;;22.76;47.12;98080.81;5024312;28;20419;-69
2022/07/30 13:21:28;;;;;;;4.88;2.63;;;;;;;22.88;47.54;98083.25;5050314;28;20429;-70
2022/07/30 13:23:58;;;;;;;4.63;2.53;;;;;;;22.97;45.42;98083.69;5052360;28;20463;-66
2022/07/30 13:26:28;;;;;;;5.13;2.90;;;;;;;23.03;44.26;98081.34;5056551;28;20522;-68
2022/07/30 13:28:57;;;;;;;5.38;2.70;;;;;;;23.08;45.23;98083.75;5052937;28;20419;-62
2022/07/30 13:31:33;;;;;;;5.63;2.70;;;;;;;23.12;44.64;98087.34;5054832;28;20444;-69